createdAt,value
2022-11-08T00:08:50.478Z,97190.70
2022-11-08T00:18:55.434Z,97189.19
2022-11-08T00:28:59.738Z,97190.80
2022-11-08T00:39:03.938Z,97192.93
2022-11-08T00:49:08.400Z,97186.13
2022-11-08T00:59:14.207Z,97190.93
2022-11-08T01:09:18.082Z,97186.35
2022-11-08T01:19:21.858Z,97177.31
2022-11-08T01:29:25.840Z,97175.73
2022-11-08T01:39:33.389Z,97173.70
2022-11-08T01:49:45.023Z,97169.59
2022-11-08T01:59:51.347Z,97168.11
2022-11-08T02:09:56.760Z,97168.90
2022-11-08T02:20:00.414Z,97167.34
2022-11-08T02:30:04.782Z,97159.28
2022-11-08T02:40:09.288Z,97157.05
2022-11-08T02:50:12.860Z,97152.90
2022-11-08T03:00:16.928Z,97152.89
2022-11-08T03:10:21.413Z,97155.43
2022-11-08T03:20:29.577Z,97153.97
2022-11-08T03:30:37.138Z,97158.61
2022-11-08T03:40:41.218Z,97151.48
2022-11-08T03:50:46.314Z,97149.29
2022-11-08T04:00:49.988Z,97151.48
2022-11-08T04:11:21.063Z,97154.16
2022-11-08T04:21:24.939Z,97151.48
2022-11-08T04:31:28.903Z,97150.82
2022-11-08T04:41:32.978Z,97148.26
2022-11-08T04:51:36.954Z,97148.31
2022-11-08T05:01:40.858Z,97148.33
2022-11-08T05:11:44.810Z,97149.13
2022-11-08T05:22:12.200Z,97144.31
2022-11-08T05:32:16.331Z,97150.05
2022-11-08T05:42:20.648Z,97148.23
2022-11-08T05:52:24.517Z,97155.19
2022-11-08T06:02:30.186Z,97159.48
2022-11-08T06:12:34.218Z,97163.90
2022-11-08T06:22:38.175Z,97173.51
2022-11-08T06:32:42.180Z,97184.40
2022-11-08T06:42:45.920Z,97183.27
2022-11-08T06:52:56.470Z,97188.75
2022-11-08T07:03:02.469Z,97189.33
2022-11-08T07:13:10.427Z,97197.26
2022-11-08T07:23:15.215Z,97196.19
2022-11-08T07:33:19.560Z,97192.67
2022-11-08T07:43:23.955Z,97194.77
2022-11-08T07:53:30.474Z,97190.09
2022-11-08T08:03:34.295Z,97188.31
2022-11-08T08:13:38.559Z,97179.78
2022-11-08T08:23:43.159Z,97173.39
2022-11-08T08:33:47.014Z,97172.45
2022-11-08T08:43:50.670Z,97165.27
2022-11-08T08:53:54.467Z,97154.54
2022-11-08T09:03:59.046Z,97151.11
2022-11-08T09:14:03.822Z,97150.19
2022-11-08T09:24:08.321Z,97142.42
2022-11-08T09:34:14.135Z,97133.41
2022-11-08T09:44:23.012Z,97131.14
2022-11-08T09:54:42.734Z,97125.77
2022-11-08T10:04:53.869Z,97120.82
2022-11-08T10:15:30.504Z,97116.50
2022-11-08T10:25:45.516Z,97108.95
2022-11-08T10:36:31.045Z,97092.63
2022-11-08T10:46:38.186Z,97090.67
2022-11-08T10:56:56.332Z,97085.67
2022-11-08T11:07:03.285Z,97071.71
2022-11-08T11:17:17.704Z,97059.19
2022-11-08T11:27:35.433Z,97045.16
2022-11-08T11:37:47.599Z,97036.52
2022-11-08T11:48:01.878Z,97031.33
2022-11-08T11:58:30.901Z,97024.23
2022-11-08T12:08:34.778Z,97021.31
2022-11-08T12:19:38.946Z,97013.45
2022-11-08T12:29:58.253Z,97009.20
2022-11-08T12:40:54.219Z,97000.40
2022-11-08T12:51:16.796Z,96998.59
2022-11-08T13:01:23.148Z,96988.98
2022-11-08T13:11:45.717Z,96990.41
2022-11-08T13:21:50.107Z,96982.52
2022-11-08T13:31:57.317Z,96981.55
2022-11-08T13:42:18.213Z,96972.90
2022-11-08T13:52:46.165Z,96971.72
2022-11-08T14:02:50.174Z,96973.09
2022-11-08T14:13:00.008Z,96970.68
2022-11-08T14:23:25.942Z,96974.63
2022-11-08T14:33:31.576Z,96963.95
2022-11-08T14:43:44.780Z,96956.19
2022-11-08T14:53:58.086Z,96952.21
2022-11-08T15:04:24.220Z,96957.88
2022-11-08T15:14:31.765Z,96951.10
2022-11-08T15:24:41.872Z,96947.77
2022-11-08T15:34:47.928Z,96945.78
2022-11-08T15:45:14.271Z,96949.62
2022-11-08T15:55:24.487Z,96951.60
2022-11-08T16:05:34.391Z,96955.02
2022-11-08T16:15:41.154Z,96955.74
2022-11-08T16:25:53.868Z,96953.59
2022-11-08T16:36:01.038Z,96959.48
2022-11-08T16:46:09.689Z,96965.70
2022-11-08T16:56:19.283Z,96967.89
2022-11-08T17:06:24.155Z,96970.56
2022-11-08T17:16:28.339Z,96969.68
2022-11-08T17:26:33.324Z,96968.98
2022-11-08T17:36:38.771Z,96965.63
2022-11-08T17:46:44.760Z,96972.73
2022-11-08T17:56:49.869Z,96975.98
2022-11-08T18:06:54.530Z,96974.42
2022-11-08T18:17:01.444Z,96984.15
2022-11-08T18:27:07.628Z,96988.13
2022-11-08T18:37:17.426Z,96984.86
2022-11-08T18:47:22.919Z,96987.88
2022-11-08T18:57:31.808Z,96980.80
2022-11-08T19:07:37.309Z,96982.71
2022-11-08T19:17:57.877Z,96981.44
2022-11-08T19:28:03.065Z,96984.52
2022-11-08T19:38:10.613Z,96994.74
2022-11-08T19:48:17.312Z,97001.34
2022-11-08T19:58:25.715Z,97000.23
2022-11-08T20:08:31.946Z,97011.38
2022-11-08T20:18:36.969Z,97015.29
2022-11-08T20:28:46.363Z,97017.65
2022-11-08T20:39:05.636Z,97016.42
2022-11-08T20:49:15.881Z,97009.18
2022-11-08T20:59:20.453Z,97009.48
2022-11-08T21:09:37.559Z,97014.95
2022-11-08T21:19:51.527Z,97015.20
2022-11-08T21:29:59.081Z,97009.41
2022-11-08T21:40:03.053Z,97004.60
2022-11-08T21:50:08.689Z,97005.95
2022-11-08T22:00:13.861Z,97005.90
2022-11-08T22:10:18.239Z,97004.27
2022-11-08T22:20:22.417Z,96996.79
2022-11-08T22:30:26.303Z,96988.98
2022-11-08T22:40:30.571Z,96974.78
2022-11-08T22:50:34.375Z,96975.74
2022-11-08T23:00:38.666Z,96979.08
2022-11-08T23:11:08.919Z,96972.14
2022-11-08T23:21:31.499Z,96978.54
2022-11-08T23:31:35.382Z,96974.64
2022-11-08T23:41:58.673Z,96974.71
2022-11-08T23:52:02.415Z,96974.73
